sensor_id;sensor_type;location;lat;lon;timestamp;pressure;altitude;pressure_sealevel;temperature;humidity
6565;BME280;3316;44.118;27.258;2023-11-19T00:00:25;100694.59;;;3.88;100.00
6565;BME280;3316;44.118;27.258;2023-11-19T00:02:51;100666.78;;;3.84;100.00
6565;BME280;3316;44.118;27.258;2023-11-19T00:05:16;100663.31;;;3.85;100.00
6565;BME280;3316;44.118;27.258;2023-11-19T00:07:42;100670.13;;;3.77;100.00
6565;BME280;3316;44.118;27.258;2023-11-19T00:10:09;100677.22;;;3.86;100.00
6565;BME280;3316;44.118;27.258;2023-11-19T00:12:35;100682.47;;;3.89;100.00
6565;BME280;3316;44.118;27.258;2023-11-19T00:15:01;100598.50;;;3.48;100.00
6565;BME280;3316;44.118;27.258;2023-11-19T00:17:27;100656.88;;;3.65;100.00
6565;BME280;3316;44.118;27.258;2023-11-19T00:19:52;100691.16;;;3.89;100.00
6565;BME280;3316;44.118;27.258;2023-11-19T00:22:18;100695.44;;;3.86;100.00
6565;BME280;3316;44.118;27.258;2023-11-19T00:24:43;100652.75;;;3.76;100.00
6565;BME280;3316;44.118;27.258;2023-11-19T00:27:10;100696.47;;;3.97;100.00
6565;BME280;3316;44.118;27.258;2023-11-19T00:29:35;100688.59;;;3.92;100.00
6565;BME280;3316;44.118;27.258;2023-11-19T00:32:01;100701.72;;;3.98;100.00
6565;BME280;3316;44.118;27.258;2023-11-19T00:34:27;100696.72;;;4.10;100.00
6565;BME280;3316;44.118;27.258;2023-11-19T00:36:52;100707.88;;;4.03;100.00
6565;BME280;3316;44.118;27.258;2023-11-19T00:39:17;100702.72;;;4.06;100.00
6565;BME280;3316;44.118;27.258;2023-11-19T00:41:43;100706.41;;;4.17;100.00
6565;BME280;3316;44.118;27.258;2023-11-19T00:44:09;100710.59;;;4.09;100.00
6565;BME280;3316;44.118;27.258;2023-11-19T00:46:34;100728.75;;;4.06;100.00
6565;BME280;3316;44.118;27.258;2023-11-19T00:48:59;100714.09;;;4.11;100.00
6565;BME280;3316;44.118;27.258;2023-11-19T00:51:26;100723.72;;;4.15;100.00
6565;BME280;3316;44.118;27.258;2023-11-19T00:53:52;100695.69;;;4.01;100.00
6565;BME280;3316;44.118;27.258;2023-11-19T00:56:18;100712.19;;;4.01;100.00
6565;BME280;3316;44.118;27.258;2023-11-19T00:58:45;100708.75;;;4.04;100.00
6565;BME280;3316;44.118;27.258;2023-11-19T01:01:11;100723.53;;;4.05;100.00
6565;BME280;3316;44.118;27.258;2023-11-19T01:03:37;100738.38;;;4.10;100.00
6565;BME280;3316;44.118;27.258;2023-11-19T01:06:03;100747.94;;;4.11;100.00
6565;BME280;3316;44.118;27.258;2023-11-19T01:08:28;100733.16;;;4.09;100.00
6565;BME280;3316;44.118;27.258;2023-11-19T01:10:54;100728.94;;;4.17;100.00
6565;BME280;3316;44.118;27.258;2023-11-19T01:13:20;100707.03;;;4.06;100.00
6565;BME280;3316;44.118;27.258;2023-11-19T01:15:45;100729.84;;;4.19;100.00
6565;BME280;3316;44.118;27.258;2023-11-19T01:18:12;100744.63;;;4.21;100.00
6565;BME280;3316;44.118;27.258;2023-11-19T01:20:38;100736.81;;;4.21;100.00
6565;BME280;3316;44.118;27.258;2023-11-19T01:23:03;100708.13;;;4.18;100.00
6565;BME280;3316;44.118;27.258;2023-11-19T01:25:29;100732.66;;;4.31;100.00
6565;BME280;3316;44.118;27.258;2023-11-19T01:27:54;100743.78;;;4.22;100.00
6565;BME280;3316;44.118;27.258;2023-11-19T01:30:23;100739.41;;;4.21;100.00
6565;BME280;3316;44.118;27.258;2023-11-19T01:32:49;100741.88;;;4.12;100.00
6565;BME280;3316;44.118;27.258;2023-11-19T01:35:14;100759.28;;;4.13;100.00
6565;BME280;3316;44.118;27.258;2023-11-19T01:37:40;100751.63;;;4.24;100.00
6565;BME280;3316;44.118;27.258;2023-11-19T01:40:06;100733.31;;;4.19;100.00
6565;BME280;3316;44.118;27.258;2023-11-19T01:42:39;100755.91;;;4.20;100.00
6565;BME280;3316;44.118;27.258;2023-11-19T01:45:05;100709.47;;;3.95;100.00
6565;BME280;3316;44.118;27.258;2023-11-19T01:47:33;100754.34;;;4.30;100.00
6565;BME280;3316;44.118;27.258;2023-11-19T01:49:59;100744.69;;;4.24;100.00
6565;BME280;3316;44.118;27.258;2023-11-19T01:52:25;100749.09;;;4.27;100.00
6565;BME280;3316;44.118;27.258;2023-11-19T01:54:52;100759.53;;;4.30;100.00
6565;BME280;3316;44.118;27.258;2023-11-19T01:57:20;100774.28;;;4.28;100.00
6565;BME280;3316;44.118;27.258;2023-11-19T01:59:47;100707.91;;;4.05;100.00
6565;BME280;3316;44.118;27.258;2023-11-19T02:02:13;100747.19;;;4.17;100.00
6565;BME280;3316;44.118;27.258;2023-11-19T02:04:38;100741.94;;;4.15;100.00
6565;BME280;3316;44.118;27.258;2023-11-19T02:07:04;100763.63;;;4.14;100.00
6565;BME280;3316;44.118;27.258;2023-11-19T02:09:30;100785.47;;;4.22;100.00
6565;BME280;3316;44.118;27.258;2023-11-19T02:11:55;100787.13;;;4.17;100.00
6565;BME280;3316;44.118;27.258;2023-11-19T02:14:25;100775.84;;;4.20;100.00
6565;BME280;3316;44.118;27.258;2023-11-19T02:16:51;100765.56;;;4.27;100.00
6565;BME280;3316;44.118;27.258;2023-11-19T02:19:20;100788.09;;;4.25;100.00
6565;BME280;3316;44.118;27.258;2023-11-19T02:21:45;100792.53;;;4.29;100.00
6565;BME280;3316;44.118;27.258;2023-11-19T02:24:12;100792.38;;;4.20;100.00
6565;BME280;3316;44.118;27.258;2023-11-19T02:26:42;100803.81;;;4.30;100.00
6565;BME280;3316;44.118;27.258;2023-11-19T02:29:10;100803.69;;;4.22;100.00
6565;BME280;3316;44.118;27.258;2023-11-19T02:31:35;100800.34;;;4.29;100.00
6565;BME280;3316;44.118;27.258;2023-11-19T02:34:01;100788.88;;;4.18;100.00
6565;BME280;3316;44.118;27.258;2023-11-19T02:36:27;100801.97;;;4.23;100.00
6565;BME280;3316;44.118;27.258;2023-11-19T02:38:53;100801.06;;;4.21;100.00
6565;BME280;3316;44.118;27.258;2023-11-19T02:41:18;100802.66;;;4.13;100.00
6565;BME280;3316;44.118;27.258;2023-11-19T02:43:44;100808.94;;;4.25;100.00
6565;BME280;3316;44.118;27.258;2023-11-19T02:46:09;100835.72;;;4.18;100.00
6565;BME280;3316;44.118;27.258;2023-11-19T02:48:36;100821.09;;;4.25;100.00
6565;BME280;3316;44.118;27.258;2023-11-19T02:51:02;100827.16;;;4.25;100.00
6565;BME280;3316;44.118;27.258;2023-11-19T02:53:32;100820.78;;;4.08;100.00
6565;BME280;3316;44.118;27.258;2023-11-19T02:55:57;100828.78;;;4.17;100.00
6565;BME280;3316;44.118;27.258;2023-11-19T02:58:27;100841.16;;;4.29;100.00
6565;BME280;3316;44.118;27.258;2023-11-19T03:00:53;100834.84;;;4.18;100.00
6565;BME280;3316;44.118;27.258;2023-11-19T03:03:34;100826.34;;;4.26;100.00
6565;BME280;3316;44.118;27.258;2023-11-19T03:06:07;100781.69;;;4.05;100.00
6565;BME280;3316;44.118;27.258;2023-11-19T03:08:35;100836.78;;;4.28;100.00
6565;BME280;3316;44.118;27.258;2023-11-19T03:11:01;100840.00;;;4.15;100.00
6565;BME280;3316;44.118;27.258;2023-11-19T03:13:27;100842.75;;;4.21;100.00
6565;BME280;3316;44.118;27.258;2023-11-19T03:15:52;100849.53;;;4.14;100.00
6565;BME280;3316;44.118;27.258;2023-11-19T03:18:19;100839.13;;;4.14;100.00
6565;BME280;3316;44.118;27.258;2023-11-19T03:20:48;100809.31;;;3.97;100.00
6565;BME280;3316;44.118;27.258;2023-11-19T03:23:15;100838.22;;;4.12;100.00
6565;BME280;3316;44.118;27.258;2023-11-19T03:25:40;100848.72;;;4.17;100.00
6565;BME280;3316;44.118;27.258;2023-11-19T03:28:05;100843.59;;;4.21;100.00
6565;BME280;3316;44.118;27.258;2023-11-19T03:30:31;100869.59;;;4.18;100.00
6565;BME280;3316;44.118;27.258;2023-11-19T03:32:58;100869.59;;;4.20;100.00
6565;BME280;3316;44.118;27.258;2023-11-19T03:35:24;100880.78;;;4.13;100.00
6565;BME280;3316;44.118;27.258;2023-11-19T03:37:50;100888.81;;;4.25;100.00
6565;BME280;3316;44.118;27.258;2023-11-19T03:40:17;100893.03;;;4.18;100.00
6565;BME280;3316;44.118;27.258;2023-11-19T03:42:47;100894.56;;;4.09;100.00
6565;BME280;3316;44.118;27.258;2023-11-19T03:45:13;100877.38;;;4.17;100.00
6565;BME280;3316;44.118;27.258;2023-11-19T03:47:38;100903.31;;;4.12;100.00
6565;BME280;3316;44.118;27.258;2023-11-19T03:50:05;100891.22;;;4.14;100.00
6565;BME280;3316;44.118;27.258;2023-11-19T03:52:31;100881.19;;;3.92;100.00
6565;BME280;3316;44.118;27.258;2023-11-19T03:54:57;100900.66;;;4.09;100.00
6565;BME280;3316;44.118;27.258;2023-11-19T03:57:23;100892.72;;;4.02;100.00
6565;BME280;3316;44.118;27.258;2023-11-19T03:59:48;100908.34;;;4.03;100.00
6565;BME280;3316;44.118;27.258;2023-11-19T04:02:15;100916.16;;;4.03;100.00
6565;BME280;3316;44.118;27.258;2023-11-19T04:04:40;100889.41;;;4.12;100.00
6565;BME280;3316;44.118;27.258;2023-11-19T04:07:06;100897.84;;;3.99;100.00
6565;BME280;3316;44.118;27.258;2023-11-19T04:09:31;100898.72;;;3.99;100.00
6565;BME280;3316;44.118;27.258;2023-11-19T04:12:01;100900.41;;;3.96;100.00
6565;BME280;3316;44.118;27.258;2023-11-19T04:14:27;100917.78;;;3.98;100.00
6565;BME280;3316;44.118;27.258;2023-11-19T04:16:52;100910.97;;;4.05;100.00
6565;BME280;3316;44.118;27.258;2023-11-19T04:19:19;100935.19;;;4.01;100.00
6565;BME280;3316;44.118;27.258;2023-11-19T04:21:45;100909.81;;;3.91;100.00
6565;BME280;3316;44.118;27.258;2023-11-19T04:24:10;100929.03;;;3.96;100.00
6565;BME280;3316;44.118;27.258;2023-11-19T04:26:43;100910.72;;;3.93;100.00
6565;BME280;3316;44.118;27.258;2023-11-19T04:29:11;100939.34;;;3.91;100.00
6565;BME280;3316;44.118;27.258;2023-11-19T04:31:38;100947.97;;;3.90;100.00
6565;BME280;3316;44.118;27.258;2023-11-19T04:34:05;100925.44;;;3.91;100.00
6565;BME280;3316;44.118;27.258;2023-11-19T04:36:34;100928.97;;;3.94;100.00
6565;BME280;3316;44.118;27.258;2023-11-19T04:39:00;100952.31;;;3.90;100.00
6565;BME280;3316;44.118;27.258;2023-11-19T04:41:27;100938.38;;;3.86;100.00
6565;BME280;3316;44.118;27.258;2023-11-19T04:43:55;100949.75;;;3.91;100.00
6565;BME280;3316;44.118;27.258;2023-11-19T04:46:21;100958.16;;;3.78;100.00
6565;BME280;3316;44.118;27.258;2023-11-19T04:48:46;100963.34;;;3.78;100.00
6565;BME280;3316;44.118;27.258;2023-11-19T04:51:12;100948.56;;;3.77;100.00
6565;BME280;3316;44.118;27.258;2023-11-19T04:53:38;100960.78;;;3.81;100.00
6565;BME280;3316;44.118;27.258;2023-11-19T04:56:12;100947.81;;;3.83;100.00
6565;BME280;3316;44.118;27.258;2023-11-19T04:58:38;100966.66;;;3.73;100.00
6565;BME280;3316;44.118;27.258;2023-11-19T05:01:04;100958.81;;;3.70;100.00
6565;BME280;3316;44.118;27.258;2023-11-19T05:03:31;100956.06;;;3.63;100.00
6565;BME280;3316;44.118;27.258;2023-11-19T05:05:57;100931.63;;;3.57;100.00
6565;BME280;3316;44.118;27.258;2023-11-19T05:08:22;100948.41;;;3.70;100.00
6565;BME280;3316;44.118;27.258;2023-11-19T05:10:47;100960.63;;;3.74;100.00
6565;BME280;3316;44.118;27.258;2023-11-19T05:13:13;100930.72;;;3.55;100.00
6565;BME280;3316;44.118;27.258;2023-11-19T05:15:38;100958.06;;;3.75;100.00
6565;BME280;3316;44.118;27.258;2023-11-19T05:18:04;100968.50;;;3.77;100.00
6565;BME280;3316;44.118;27.258;2023-11-19T05:20:30;100945.78;;;3.68;100.00
6565;BME280;3316;44.118;27.258;2023-11-19T05:22:55;100969.94;;;3.63;100.00
6565;BME280;3316;44.118;27.258;2023-11-19T05:25:21;100942.94;;;3.59;100.00
6565;BME280;3316;44.118;27.258;2023-11-19T05:27:46;100966.50;;;3.65;100.00
6565;BME280;3316;44.118;27.258;2023-11-19T05:30:12;100916.06;;;3.21;100.00
6565;BME280;3316;44.118;27.258;2023-11-19T05:32:37;100984.03;;;3.72;100.00
6565;BME280;3316;44.118;27.258;2023-11-19T05:35:03;100987.47;;;3.71;100.00
6565;BME280;3316;44.118;27.258;2023-11-19T05:37:28;100987.41;;;3.68;100.00
6565;BME280;3316;44.118;27.258;2023-11-19T05:39:54;101004.75;;;3.69;100.00
6565;BME280;3316;44.118;27.258;2023-11-19T05:42:19;100993.84;;;3.48;100.00
6565;BME280;3316;44.118;27.258;2023-11-19T05:44:45;100966.88;;;3.43;100.00
6565;BME280;3316;44.118;27.258;2023-11-19T05:47:10;100991.69;;;3.66;100.00
6565;BME280;3316;44.118;27.258;2023-11-19T05:49:36;100993.13;;;3.55;100.00
6565;BME280;3316;44.118;27.258;2023-11-19T05:52:02;101009.22;;;3.75;100.00
6565;BME280;3316;44.118;27.258;2023-11-19T05:54:28;101017.13;;;3.79;100.00
6565;BME280;3316;44.118;27.258;2023-11-19T05:56:53;101000.50;;;3.73;100.00
6565;BME280;3316;44.118;27.258;2023-11-19T05:59:19;101001.25;;;3.67;100.00
6565;BME280;3316;44.118;27.258;2023-11-19T06:01:45;101009.28;;;3.76;100.00
6565;BME280;3316;44.118;27.258;2023-11-19T06:04:15;101011.00;;;3.76;100.00
6565;BME280;3316;44.118;27.258;2023-11-19T06:06:41;101011.78;;;3.73;100.00
6565;BME280;3316;44.118;27.258;2023-11-19T06:09:06;101010.00;;;3.71;100.00
6565;BME280;3316;44.118;27.258;2023-11-19T06:11:36;101002.13;;;3.68;100.00
6565;BME280;3316;44.118;27.258;2023-11-19T06:14:02;101018.44;;;3.60;100.00
6565;BME280;3316;44.118;27.258;2023-11-19T06:16:28;101010.81;;;3.68;100.00
6565;BME280;3316;44.118;27.258;2023-11-19T06:18:53;101016.09;;;3.73;100.00
6565;BME280;3316;44.118;27.258;2023-11-19T06:21:19;100973.00;;;3.45;100.00
6565;BME280;3316;44.118;27.258;2023-11-19T06:23:44;101013.19;;;3.59;100.00
6565;BME280;3316;44.118;27.258;2023-11-19T06:26:10;100996.31;;;3.42;100.00
6565;BME280;3316;44.118;27.258;2023-11-19T06:28:35;101038.44;;;3.63;100.00
6565;BME280;3316;44.118;27.258;2023-11-19T06:31:01;101037.97;;;3.79;100.00
6565;BME280;3316;44.118;27.258;2023-11-19T06:33:27;101041.94;;;3.63;100.00
6565;BME280;3316;44.118;27.258;2023-11-19T06:35:52;101040.34;;;3.69;100.00
6565;BME280;3316;44.118;27.258;2023-11-19T06:38:20;101037.72;;;3.69;100.00
6565;BME280;3316;44.118;27.258;2023-11-19T06:40:45;101052.47;;;3.68;100.00
6565;BME280;3316;44.118;27.258;2023-11-19T06:43:10;101037.66;;;3.67;100.00
6565;BME280;3316;44.118;27.258;2023-11-19T06:45:36;101034.97;;;3.63;100.00
6565;BME280;3316;44.118;27.258;2023-11-19T06:48:04;101049.84;;;3.68;100.00
6565;BME280;3316;44.118;27.258;2023-11-19T06:50:31;101038.63;;;3.71;100.00
6565;BME280;3316;44.118;27.258;2023-11-19T06:52:56;101035.94;;;3.68;100.00
6565;BME280;3316;44.118;27.258;2023-11-19T06:55:22;101043.97;;;3.77;100.00
6565;BME280;3316;44.118;27.258;2023-11-19T06:57:47;101023.97;;;3.74;100.00
6565;BME280;3316;44.118;27.258;2023-11-19T07:00:13;101031.03;;;3.80;100.00
6565;BME280;3316;44.118;27.258;2023-11-19T07:02:38;101052.06;;;3.89;100.00
6565;BME280;3316;44.118;27.258;2023-11-19T07:05:05;101050.91;;;3.76;100.00
6565;BME280;3316;44.118;27.258;2023-11-19T07:07:31;101049.28;;;3.81;100.00
6565;BME280;3316;44.118;27.258;2023-11-19T07:09:57;101057.97;;;3.80;100.00
6565;BME280;3316;44.118;27.258;2023-11-19T07:12:23;101047.72;;;3.88;100.00
6565;BME280;3316;44.118;27.258;2023-11-19T07:14:49;101060.66;;;3.85;100.00
6565;BME280;3316;44.118;27.258;2023-11-19T07:17:14;101059.84;;;3.87;100.00
6565;BME280;3316;44.118;27.258;2023-11-19T07:19:40;101068.69;;;3.94;100.00
6565;BME280;3316;44.118;27.258;2023-11-19T07:22:06;101077.41;;;3.96;100.00
6565;BME280;3316;44.118;27.258;2023-11-19T07:24:32;101058.03;;;3.85;100.00
6565;BME280;3316;44.118;27.258;2023-11-19T07:26:57;101061.53;;;3.85;100.00
6565;BME280;3316;44.118;27.258;2023-11-19T07:29:23;101060.81;;;3.92;100.00
6565;BME280;3316;44.118;27.258;2023-11-19T07:31:49;101053.97;;;3.96;100.00
6565;BME280;3316;44.118;27.258;2023-11-19T07:34:14;101074.03;;;4.00;100.00
6565;BME280;3316;44.118;27.258;2023-11-19T07:36:40;101084.47;;;4.01;100.00
6565;BME280;3316;44.118;27.258;2023-11-19T07:39:06;101099.47;;;4.11;100.00
6565;BME280;3316;44.118;27.258;2023-11-19T07:41:32;101110.06;;;4.19;100.00
6565;BME280;3316;44.118;27.258;2023-11-19T07:43:57;101107.28;;;4.11;100.00
6565;BME280;3316;44.118;27.258;2023-11-19T07:46:23;101108.13;;;4.12;100.00
6565;BME280;3316;44.118;27.258;2023-11-19T07:48:50;101075.72;;;3.98;100.00
6565;BME280;3316;44.118;27.258;2023-11-19T07:51:15;101125.44;;;4.08;100.00
6565;BME280;3316;44.118;27.258;2023-11-19T07:53:41;101130.88;;;4.17;100.00
6565;BME280;3316;44.118;27.258;2023-11-19T07:56:08;101136.75;;;4.10;100.00
6565;BME280;3316;44.118;27.258;2023-11-19T07:58:33;101155.09;;;4.15;100.00
6565;BME280;3316;44.118;27.258;2023-11-19T08:00:59;101148.25;;;4.20;100.00
6565;BME280;3316;44.118;27.258;2023-11-19T08:03:24;101157.94;;;4.25;100.00
6565;BME280;3316;44.118;27.258;2023-11-19T08:05:50;101161.69;;;4.36;100.00
6565;BME280;3316;44.118;27.258;2023-11-19T08:08:16;101167.81;;;4.38;100.00
6565;BME280;3316;44.118;27.258;2023-11-19T08:10:42;101156.19;;;4.24;100.00
6565;BME280;3316;44.118;27.258;2023-11-19T08:13:10;101173.03;;;4.38;100.00
6565;BME280;3316;44.118;27.258;2023-11-19T08:15:35;101175.84;;;4.47;100.00
6565;BME280;3316;44.118;27.258;2023-11-19T08:18:00;101171.53;;;4.49;100.00
6565;BME280;3316;44.118;27.258;2023-11-19T08:20:27;101168.09;;;4.50;100.00
6565;BME280;3316;44.118;27.258;2023-11-19T08:22:52;101172.66;;;4.61;100.00
6565;BME280;3316;44.118;27.258;2023-11-19T08:25:18;101171.03;;;4.66;100.00
6565;BME280;3316;44.118;27.258;2023-11-19T08:27:43;101148.38;;;4.62;100.00
6565;BME280;3316;44.118;27.258;2023-11-19T08:30:09;101166.09;;;4.78;100.00
6565;BME280;3316;44.118;27.258;2023-11-19T08:32:35;101173.16;;;4.83;100.00
6565;BME280;3316;44.118;27.258;2023-11-19T08:35:01;101173.03;;;4.77;100.00
6565;BME280;3316;44.118;27.258;2023-11-19T08:37:26;101163.50;;;4.78;100.00
6565;BME280;3316;44.118;27.258;2023-11-19T08:39:52;101176.72;;;4.87;100.00
6565;BME280;3316;44.118;27.258;2023-11-19T08:42:18;101160.09;;;4.82;100.00
6565;BME280;3316;44.118;27.258;2023-11-19T08:44:43;101180.09;;;4.83;100.00
6565;BME280;3316;44.118;27.258;2023-11-19T08:47:12;101136.16;;;4.61;100.00
6565;BME280;3316;44.118;27.258;2023-11-19T08:49:38;101181.91;;;4.85;100.00
6565;BME280;3316;44.118;27.258;2023-11-19T08:52:04;101172.91;;;4.71;100.00
6565;BME280;3316;44.118;27.258;2023-11-19T08:54:30;101174.59;;;4.69;100.00
6565;BME280;3316;44.118;27.258;2023-11-19T08:56:55;101144.81;;;4.58;100.00
6565;BME280;3316;44.118;27.258;2023-11-19T08:59:21;101173.19;;;4.85;100.00
6565;BME280;3316;44.118;27.258;2023-11-19T09:01:47;101176.91;;;4.96;100.00
6565;BME280;3316;44.118;27.258;2023-11-19T09:04:12;101133.91;;;4.76;100.00
6565;BME280;3316;44.118;27.258;2023-11-19T09:06:38;101157.97;;;5.06;100.00
6565;BME280;3316;44.118;27.258;2023-11-19T09:09:03;101151.72;;;4.98;100.00
6565;BME280;3316;44.118;27.258;2023-11-19T09:11:30;101153.38;;;4.93;100.00
6565;BME280;3316;44.118;27.258;2023-11-19T09:13:56;101145.53;;;4.91;100.00
6565;BME280;3316;44.118;27.258;2023-11-19T09:16:22;101165.28;;;5.23;100.00
6565;BME280;3316;44.118;27.258;2023-11-19T09:18:48;101155.94;;;5.34;100.00
6565;BME280;3316;44.118;27.258;2023-11-19T09:21:13;101135.94;;;5.35;100.00
6565;BME280;3316;44.118;27.258;2023-11-19T09:23:39;101132.69;;;5.47;100.00
6565;BME280;3316;44.118;27.258;2023-11-19T09:26:05;101132.63;;;5.43;100.00
6565;BME280;3316;44.118;27.258;2023-11-19T09:28:32;101133.28;;;5.32;100.00
6565;BME280;3316;44.118;27.258;2023-11-19T09:30:57;101125.75;;;5.49;100.00
6565;BME280;3316;44.118;27.258;2023-11-19T09:33:24;101130.38;;;5.63;100.00
6565;BME280;3316;44.118;27.258;2023-11-19T09:35:49;101108.81;;;5.73;100.00
6565;BME280;3316;44.118;27.258;2023-11-19T09:38:16;101054.59;;;5.57;100.00
6565;BME280;3316;44.118;27.258;2023-11-19T09:40:42;101095.91;;;6.39;100.00
6565;BME280;3316;44.118;27.258;2023-11-19T09:43:07;101089.44;;;6.77;100.00
6565;BME280;3316;44.118;27.258;2023-11-19T09:45:48;101031.00;;;6.75;100.00
6565;BME280;3316;44.118;27.258;2023-11-19T09:48:17;101085.75;;;7.38;100.00
6565;BME280;3316;44.118;27.258;2023-11-19T09:50:47;101082.81;;;7.99;100.00
6565;BME280;3316;44.118;27.258;2023-11-19T09:53:13;101063.59;;;7.99;100.00
6565;BME280;3316;44.118;27.258;2023-11-19T09:55:39;101083.56;;;7.86;100.00
6565;BME280;3316;44.118;27.258;2023-11-19T09:58:05;101074.44;;;7.39;100.00
6565;BME280;3316;44.118;27.258;2023-11-19T10:00:32;101087.84;;;7.77;100.00
6565;BME280;3316;44.118;27.258;2023-11-19T10:02:59;101079.69;;;7.44;100.00
6565;BME280;3316;44.118;27.258;2023-11-19T10:05:25;101082.56;;;7.68;100.00
6565;BME280;3316;44.118;27.258;2023-11-19T10:07:52;101077.59;;;8.05;100.00
6565;BME280;3316;44.118;27.258;2023-11-19T10:10:17;101074.19;;;8.19;100.00
6565;BME280;3316;44.118;27.258;2023-11-19T10:12:47;101076.91;;;8.28;100.00
6565;BME280;3316;44.118;27.258;2023-11-19T10:15:23;101093.66;;;8.57;100.00
6565;BME280;3316;44.118;27.258;2023-11-19T10:17:50;101087.78;;;9.12;100.00
6565;BME280;3316;44.118;27.258;2023-11-19T10:20:16;101087.88;;;9.91;100.00
6565;BME280;3316;44.118;27.258;2023-11-19T10:22:42;101100.88;;;10.69;93.12
6565;BME280;3316;44.118;27.258;2023-11-19T10:25:27;101088.31;;;12.39;76.02
6565;BME280;3316;44.118;27.258;2023-11-19T10:27:53;101107.75;;;14.71;59.38
6565;BME280;3316;44.118;27.258;2023-11-19T10:30:24;101100.72;;;14.70;55.52
6565;BME280;3316;44.118;27.258;2023-11-19T10:35:35;101092.06;;;15.04;52.12
6565;BME280;3316;44.118;27.258;2023-11-19T10:38:01;101083.50;;;14.90;50.53
6565;BME280;3316;44.118;27.258;2023-11-19T10:40:38;101081.66;;;14.02;53.95
6565;BME280;3316;44.118;27.258;2023-11-19T10:43:07;101064.88;;;13.50;56.48
6565;BME280;3316;44.118;27.258;2023-11-19T10:45:36;101070.75;;;13.12;58.45
6565;BME280;3316;44.118;27.258;2023-11-19T10:48:03;101072.19;;;11.78;64.39
6565;BME280;3316;44.118;27.258;2023-11-19T10:50:39;101068.53;;;10.38;79.03
6565;BME280;3316;44.118;27.258;2023-11-19T10:53:06;101071.22;;;9.76;93.31
6565;BME280;3316;44.118;27.258;2023-11-19T10:55:37;101077.34;;;9.75;97.27
6565;BME280;3316;44.118;27.258;2023-11-19T10:58:06;101076.44;;;10.07;95.92
6565;BME280;3316;44.118;27.258;2023-11-19T11:00:47;101034.03;;;11.09;85.08
6565;BME280;3316;44.118;27.258;2023-11-19T11:03:21;101066.09;;;12.60;73.59
6565;BME280;3316;44.118;27.258;2023-11-19T11:05:49;101066.88;;;11.86;72.10
6565;BME280;3316;44.118;27.258;2023-11-19T11:08:15;101079.84;;;10.66;81.01
6565;BME280;3316;44.118;27.258;2023-11-19T11:10:53;101078.19;;;9.28;97.20
6565;BME280;3316;44.118;27.258;2023-11-19T11:13:19;101059.56;;;8.58;100.00
6565;BME280;3316;44.118;27.258;2023-11-19T11:15:48;101070.81;;;8.32;100.00
6565;BME280;3316;44.118;27.258;2023-11-19T11:18:14;101074.31;;;8.34;100.00
6565;BME280;3316;44.118;27.258;2023-11-19T11:20:40;101076.19;;;8.57;100.00
6565;BME280;3316;44.118;27.258;2023-11-19T11:29:08;101065.31;;;7.95;100.00
6565;BME280;3316;44.118;27.258;2023-11-19T11:40:01;101067.50;;;7.46;100.00
6565;BME280;3316;44.118;27.258;2023-11-19T11:42:34;101070.28;;;7.65;100.00
6565;BME280;3316;44.118;27.258;2023-11-19T11:45:03;101037.13;;;7.64;100.00
6565;BME280;3316;44.118;27.258;2023-11-19T11:50:15;101056.69;;;8.18;100.00
6565;BME280;3316;44.118;27.258;2023-11-19T11:55:28;101042.94;;;8.55;100.00
6565;BME280;3316;44.118;27.258;2023-11-19T11:58:21;101033.13;;;8.15;100.00
6565;BME280;3316;44.118;27.258;2023-11-19T12:00:48;101020.72;;;7.88;100.00
6565;BME280;3316;44.118;27.258;2023-11-19T12:03:14;101057.75;;;8.36;100.00
6565;BME280;3316;44.118;27.258;2023-11-19T12:05:45;101055.38;;;9.04;100.00
6565;BME280;3316;44.118;27.258;2023-11-19T12:08:18;101044.09;;;9.73;100.00
6565;BME280;3316;44.118;27.258;2023-11-19T12:10:52;101037.94;;;9.78;100.00
6565;BME280;3316;44.118;27.258;2023-11-19T12:13:20;101043.19;;;9.69;100.00
6565;BME280;3316;44.118;27.258;2023-11-19T12:18:30;101063.28;;;9.16;100.00
6565;BME280;3316;44.118;27.258;2023-11-19T12:20:59;101063.31;;;9.24;100.00
6565;BME280;3316;44.118;27.258;2023-11-19T12:23:27;101052.81;;;9.40;100.00
6565;BME280;3316;44.118;27.258;2023-11-19T12:25:54;101051.06;;;9.33;100.00
6565;BME280;3316;44.118;27.258;2023-11-19T12:28:20;101055.44;;;9.40;100.00
6565;BME280;3316;44.118;27.258;2023-11-19T12:30:46;101044.94;;;9.39;100.00
6565;BME280;3316;44.118;27.258;2023-11-19T12:33:13;101036.19;;;9.53;100.00
6565;BME280;3316;44.118;27.258;2023-11-19T12:35:45;101043.19;;;9.47;100.00
6565;BME280;3316;44.118;27.258;2023-11-19T12:38:24;101055.47;;;9.76;100.00
6565;BME280;3316;44.118;27.258;2023-11-19T12:41:09;101032.69;;;9.84;99.78
6565;BME280;3316;44.118;27.258;2023-11-19T12:43:38;101022.19;;;9.65;99.89
6565;BME280;3316;44.118;27.258;2023-11-19T12:46:18;101026.56;;;9.60;99.64
6565;BME280;3316;44.118;27.258;2023-11-19T12:48:45;101039.69;;;9.73;100.00
6565;BME280;3316;44.118;27.258;2023-11-19T12:51:11;101028.28;;;9.83;100.00
6565;BME280;3316;44.118;27.258;2023-11-19T12:53:56;101035.28;;;9.89;100.00
6565;BME280;3316;44.118;27.258;2023-11-19T12:56:23;101000.28;;;9.25;99.17
6565;BME280;3316;44.118;27.258;2023-11-19T12:58:49;101044.00;;;9.10;100.00
6565;BME280;3316;44.118;27.258;2023-11-19T13:01:17;101047.47;;;8.98;100.00
6565;BME280;3316;44.118;27.258;2023-11-19T13:03:43;101036.13;;;9.08;100.00
6565;BME280;3316;44.118;27.258;2023-11-19T13:06:11;101033.50;;;9.19;100.00
6565;BME280;3316;44.118;27.258;2023-11-19T13:08:42;101026.41;;;8.74;100.00
6565;BME280;3316;44.118;27.258;2023-11-19T13:11:09;101034.31;;;8.80;100.00
6565;BME280;3316;44.118;27.258;2023-11-19T13:13:54;101039.56;;;8.77;100.00
6565;BME280;3316;44.118;27.258;2023-11-19T13:16:19;101015.84;;;8.54;100.00
6565;BME280;3316;44.118;27.258;2023-11-19T13:18:45;101041.28;;;8.69;100.00
6565;BME280;3316;44.118;27.258;2023-11-19T13:21:10;101028.06;;;8.46;100.00
6565;BME280;3316;44.118;27.258;2023-11-19T13:23:35;101040.34;;;8.61;100.00